RBG250 LEBB-HEGN
Flight info
| Callsign | RBG250 |
|---|---|
| Flight time | N/A |
| Altitude | 33000 |
| Route | PPN DCT BCN DCT ORKUM DCT TISAL/N0449F350 DCT BOPIX N710 TAKRI M720 FYM M872 BOPOB BOPOB1A |
| Aircraft | A21N/M-SDE3FGHIRWY/LB1 |
Departure
| Time | N/A |
|---|---|
| Airport | Bilbao Airport (LEBB) |
Arrival
| Time | 2026-04-30 19:37 |
|---|---|
| Airport | Hurghada International Airport (HEGN) |
| Time | Latitude | Longitude | Altitude | Speed | Heading |
|---|---|---|---|---|---|
| 2026-04-30 15:07 | 43.30474 | -2.90804 | 163 ft | 0 kts | 26° |
| 2026-04-30 15:17 | 43.30468 | -2.90809 | 161 ft | 2 kts | 26° |
| 2026-04-30 15:18 | 43.30415 | -2.90878 | 159 ft | 2 kts | 80° |
| 2026-04-30 15:19 | 43.30414 | -2.90899 | 160 ft | 0 kts | 90° |
| 2026-04-30 17:39 | 36.08920 | 18.53189 | 35061 ft | 510 kts | 124° |
| 2026-04-30 17:42 | 35.88287 | 18.90659 | 34988 ft | 510 kts | 125° |
| 2026-04-30 17:43 | 35.77843 | 19.09466 | 34984 ft | 510 kts | 125° |
| 2026-04-30 17:44 | 35.65339 | 19.31854 | 34985 ft | 511 kts | 125° |
| 2026-04-30 17:47 | 35.46421 | 19.65453 | 34988 ft | 512 kts | 126° |
| 2026-04-30 17:48 | 35.31715 | 19.91352 | 34995 ft | 512 kts | 127° |
| 2026-04-30 17:50 | 35.14750 | 20.20994 | 35003 ft | 514 kts | 127° |
| 2026-04-30 17:52 | 35.01984 | 20.43126 | 34993 ft | 515 kts | 127° |
| 2026-04-30 17:54 | 34.82767 | 20.76194 | 34982 ft | 514 kts | 128° |
| 2026-04-30 17:56 | 34.65669 | 21.05363 | 34986 ft | 514 kts | 129° |
| 2026-04-30 17:58 | 34.52733 | 21.27264 | 34985 ft | 515 kts | 128° |
| 2026-04-30 18:00 | 34.35511 | 21.56225 | 34979 ft | 514 kts | 129° |
| 2026-04-30 18:01 | 34.24659 | 21.74357 | 34975 ft | 513 kts | 129° |
| 2026-04-30 18:02 | 34.11692 | 21.95896 | 34970 ft | 513 kts | 129° |
| 2026-04-30 18:04 | 33.98654 | 22.17432 | 34990 ft | 514 kts | 129° |
| 2026-04-30 18:06 | 33.81172 | 22.46101 | 34992 ft | 514 kts | 129° |
| 2026-04-30 18:08 | 33.65838 | 22.71063 | 34982 ft | 512 kts | 129° |
| 2026-04-30 18:10 | 33.48273 | 22.99449 | 34992 ft | 512 kts | 129° |
| 2026-04-30 18:11 | 33.32986 | 23.23983 | 34994 ft | 510 kts | 129° |
| 2026-04-30 18:13 | 33.22297 | 23.41033 | 34995 ft | 510 kts | 129° |
| 2026-04-30 18:14 | 33.11241 | 23.58594 | 34994 ft | 509 kts | 129° |
| 2026-04-30 18:15 | 32.97916 | 23.79639 | 34994 ft | 520 kts | 130° |
| 2026-04-30 18:16 | 32.88803 | 23.93975 | 34993 ft | 525 kts | 130° |
| 2026-04-30 18:17 | 32.84238 | 24.01127 | 34994 ft | 525 kts | 130° |
| 2026-04-30 18:18 | 32.77345 | 24.11908 | 34996 ft | 524 kts | 130° |
| 2026-04-30 18:18 | 32.72694 | 24.19168 | 34998 ft | 524 kts | 130° |
| 2026-04-30 18:19 | 32.68110 | 24.26307 | 34997 ft | 524 kts | 130° |
| 2026-04-30 18:19 | 32.63506 | 24.33463 | 34996 ft | 523 kts | 130° |
| 2026-04-30 18:20 | 32.58851 | 24.40679 | 34994 ft | 524 kts | 130° |
| 2026-04-30 18:20 | 32.54205 | 24.47871 | 34992 ft | 524 kts | 130° |
| 2026-04-30 18:21 | 32.49577 | 24.55026 | 34992 ft | 524 kts | 130° |
| 2026-04-30 18:21 | 32.45015 | 24.62067 | 34989 ft | 523 kts | 130° |
| 2026-04-30 18:22 | 32.40454 | 24.69084 | 34986 ft | 522 kts | 130° |
| 2026-04-30 18:22 | 32.33646 | 24.79538 | 34988 ft | 522 kts | 130° |
| 2026-04-30 18:23 | 32.29060 | 24.86566 | 34990 ft | 522 kts | 130° |
| 2026-04-30 18:23 | 32.24444 | 24.93627 | 34991 ft | 522 kts | 130° |
| 2026-04-30 18:24 | 32.17539 | 25.04165 | 34993 ft | 521 kts | 130° |
| 2026-04-30 18:25 | 32.12938 | 25.11172 | 34993 ft | 521 kts | 130° |
| 2026-04-30 18:25 | 32.06065 | 25.21609 | 34993 ft | 522 kts | 130° |
| 2026-04-30 18:26 | 31.99145 | 25.32093 | 34993 ft | 522 kts | 130° |
| 2026-04-30 18:27 | 31.92220 | 25.42556 | 34994 ft | 522 kts | 130° |
| 2026-04-30 18:28 | 31.85273 | 25.53017 | 34977 ft | 522 kts | 130° |
| 2026-04-30 18:28 | 31.78341 | 25.63434 | 34980 ft | 522 kts | 130° |
| 2026-04-30 18:29 | 31.69050 | 25.77350 | 34988 ft | 522 kts | 131° |
| 2026-04-30 18:30 | 31.59738 | 25.91244 | 34983 ft | 522 kts | 131° |
| 2026-04-30 18:31 | 31.52751 | 26.01636 | 34992 ft | 523 kts | 131° |
| 2026-04-30 18:32 | 31.45739 | 26.12039 | 34995 ft | 523 kts | 131° |
| 2026-04-30 18:33 | 31.38680 | 26.22483 | 35016 ft | 523 kts | 131° |
| 2026-04-30 18:33 | 31.31648 | 26.32857 | 35009 ft | 523 kts | 131° |
| 2026-04-30 18:34 | 31.24584 | 26.43251 | 35017 ft | 523 kts | 131° |
| 2026-04-30 18:35 | 31.19938 | 26.50071 | 35014 ft | 523 kts | 131° |
| 2026-04-30 18:35 | 31.15280 | 26.56899 | 35015 ft | 523 kts | 131° |
| 2026-04-30 18:36 | 31.08235 | 26.67204 | 35017 ft | 524 kts | 132° |
| 2026-04-30 18:37 | 31.01157 | 26.77527 | 35025 ft | 524 kts | 132° |
| 2026-04-30 18:37 | 30.96419 | 26.84421 | 35024 ft | 525 kts | 132° |
| 2026-04-30 18:38 | 30.91690 | 26.91291 | 35026 ft | 525 kts | 132° |
| 2026-04-30 18:38 | 30.86973 | 26.98134 | 35021 ft | 525 kts | 132° |
| 2026-04-30 18:39 | 30.82215 | 27.05022 | 35021 ft | 524 kts | 132° |
| 2026-04-30 18:39 | 30.77441 | 27.11920 | 35007 ft | 525 kts | 132° |
| 2026-04-30 18:40 | 30.72697 | 27.18762 | 35004 ft | 526 kts | 132° |
| 2026-04-30 18:40 | 30.67947 | 27.25604 | 35000 ft | 526 kts | 132° |
| 2026-04-30 18:41 | 30.63209 | 27.32417 | 34999 ft | 526 kts | 132° |
| 2026-04-30 18:41 | 30.58459 | 27.39233 | 35003 ft | 526 kts | 132° |
| 2026-04-30 18:42 | 30.53709 | 27.46036 | 35002 ft | 526 kts | 132° |
| 2026-04-30 18:42 | 30.46592 | 27.56213 | 34999 ft | 527 kts | 132° |
| 2026-04-30 18:45 | 30.20428 | 27.93394 | 34973 ft | 527 kts | 133° |
| 2026-04-30 18:46 | 30.15643 | 28.00156 | 34978 ft | 527 kts | 133° |
| 2026-04-30 18:46 | 30.10827 | 28.06950 | 34977 ft | 528 kts | 133° |
| 2026-04-30 18:47 | 30.06039 | 28.13695 | 34975 ft | 528 kts | 133° |
| 2026-04-30 18:47 | 30.01281 | 28.20384 | 34985 ft | 528 kts | 133° |
| 2026-04-30 18:48 | 29.96392 | 28.27246 | 34991 ft | 529 kts | 133° |
| 2026-04-30 18:48 | 29.91514 | 28.34085 | 34993 ft | 530 kts | 133° |
| 2026-04-30 18:49 | 29.86653 | 28.40887 | 34993 ft | 530 kts | 133° |
| 2026-04-30 18:49 | 29.81969 | 28.47778 | 34996 ft | 532 kts | 130° |
| 2026-04-30 18:50 | 29.77331 | 28.54785 | 34995 ft | 532 kts | 130° |
| 2026-04-30 18:50 | 29.72651 | 28.61793 | 34997 ft | 533 kts | 131° |
| 2026-04-30 18:51 | 29.67971 | 28.68761 | 35003 ft | 533 kts | 131° |
| 2026-04-30 18:51 | 29.63279 | 28.75734 | 35013 ft | 533 kts | 131° |
| 2026-04-30 18:52 | 29.58615 | 28.82657 | 35017 ft | 533 kts | 131° |
| 2026-04-30 18:52 | 29.53904 | 28.89641 | 35014 ft | 534 kts | 131° |
| 2026-04-30 18:53 | 29.49257 | 28.96514 | 35013 ft | 535 kts | 131° |
| 2026-04-30 18:53 | 29.45051 | 29.03729 | 35010 ft | 540 kts | 120° |
| 2026-04-30 18:54 | 29.42322 | 29.12078 | 35009 ft | 543 kts | 103° |
| 2026-04-30 18:54 | 29.41425 | 29.21011 | 35019 ft | 542 kts | 89° |
| 2026-04-30 18:55 | 29.41416 | 29.29978 | 35014 ft | 541 kts | 88° |
| 2026-04-30 18:55 | 29.41354 | 29.43359 | 35012 ft | 541 kts | 89° |
| 2026-04-30 18:56 | 29.41184 | 29.56681 | 35013 ft | 541 kts | 88° |
| 2026-04-30 18:57 | 29.40996 | 29.70025 | 35009 ft | 541 kts | 89° |
| 2026-04-30 18:57 | 29.40858 | 29.78908 | 35012 ft | 541 kts | 89° |
| 2026-04-30 18:58 | 29.40643 | 29.92310 | 35012 ft | 541 kts | 89° |
| 2026-04-30 18:59 | 29.40417 | 30.05621 | 35011 ft | 542 kts | 89° |
| 2026-04-30 19:00 | 29.40090 | 30.23526 | 34997 ft | 540 kts | 89° |
| 2026-04-30 19:01 | 29.37078 | 30.40806 | 34987 ft | 541 kts | 118° |
| 2026-04-30 19:02 | 29.30097 | 30.51175 | 34982 ft | 531 kts | 139° |
| 2026-04-30 19:03 | 29.19311 | 30.63703 | 34975 ft | 531 kts | 138° |
| 2026-04-30 19:04 | 29.08631 | 30.76365 | 34984 ft | 533 kts | 139° |
| 2026-04-30 19:05 | 28.97955 | 30.88994 | 34982 ft | 535 kts | 139° |
| 2026-04-30 19:06 | 28.87296 | 31.01574 | 34982 ft | 535 kts | 138° |
| 2026-04-30 19:06 | 28.79324 | 31.10959 | 34982 ft | 533 kts | 138° |
| 2026-04-30 19:07 | 28.71320 | 31.20353 | 34984 ft | 533 kts | 139° |
| 2026-04-30 19:08 | 28.61004 | 31.33228 | 34991 ft | 532 kts | 136° |
| 2026-04-30 19:09 | 28.53286 | 31.42944 | 34994 ft | 533 kts | 136° |
| 2026-04-30 19:09 | 28.48106 | 31.49444 | 35000 ft | 532 kts | 136° |
| 2026-04-30 19:10 | 28.37841 | 31.62295 | 35099 ft | 533 kts | 136° |
| 2026-04-30 19:11 | 28.35270 | 31.65512 | 34956 ft | 533 kts | 137° |
| 2026-04-30 19:11 | 28.30120 | 31.71935 | 35000 ft | 532 kts | 136° |
| 2026-04-30 19:12 | 28.25023 | 31.78287 | 35010 ft | 532 kts | 136° |
| 2026-04-30 19:12 | 28.19883 | 31.84681 | 35013 ft | 531 kts | 136° |
| 2026-04-30 19:13 | 28.09591 | 31.97455 | 35023 ft | 532 kts | 136° |
| 2026-04-30 19:14 | 28.04693 | 32.03906 | 35026 ft | 536 kts | 131° |
| 2026-04-30 19:14 | 28.00373 | 32.11213 | 34993 ft | 527 kts | 122° |
| 2026-04-30 19:14 | 27.98569 | 32.14917 | 34724 ft | 523 kts | 121° |
| 2026-04-30 19:15 | 27.96816 | 32.18607 | 34443 ft | 521 kts | 120° |
| 2026-04-30 19:15 | 27.93303 | 32.25996 | 33632 ft | 520 kts | 121° |
| 2026-04-30 19:15 | 27.91527 | 32.29697 | 32957 ft | 521 kts | 120° |
| 2026-04-30 19:16 | 27.89748 | 32.33381 | 32194 ft | 524 kts | 120° |
| 2026-04-30 19:16 | 27.87947 | 32.37112 | 31417 ft | 526 kts | 120° |
| 2026-04-30 19:16 | 27.84336 | 32.44561 | 29838 ft | 529 kts | 120° |
| 2026-04-30 19:17 | 27.82493 | 32.48360 | 29015 ft | 531 kts | 119° |
| 2026-04-30 19:17 | 27.78842 | 32.55893 | 27780 ft | 522 kts | 120° |
| 2026-04-30 19:17 | 27.77060 | 32.59564 | 27311 ft | 514 kts | 120° |
| 2026-04-30 19:18 | 27.74129 | 32.65588 | 26452 ft | 505 kts | 120° |
| 2026-04-30 19:18 | 27.71797 | 32.70382 | 25743 ft | 498 kts | 120° |
| 2026-04-30 19:18 | 27.70077 | 32.73901 | 25219 ft | 493 kts | 120° |
| 2026-04-30 19:19 | 27.68351 | 32.77433 | 24677 ft | 488 kts | 120° |
| 2026-04-30 19:19 | 27.66651 | 32.80911 | 24154 ft | 483 kts | 120° |
| 2026-04-30 19:19 | 27.63331 | 32.87693 | 23089 ft | 475 kts | 120° |
| 2026-04-30 19:20 | 27.61661 | 32.91099 | 22566 ft | 471 kts | 120° |
| 2026-04-30 19:20 | 27.60024 | 32.94438 | 22046 ft | 467 kts | 120° |
| 2026-04-30 19:20 | 27.56775 | 33.01047 | 20987 ft | 459 kts | 120° |
| 2026-04-30 19:21 | 27.55173 | 33.04308 | 20438 ft | 456 kts | 120° |
| 2026-04-30 19:21 | 27.51963 | 33.10827 | 19349 ft | 449 kts | 120° |
| 2026-04-30 19:22 | 27.48822 | 33.17204 | 18266 ft | 442 kts | 120° |
| 2026-04-30 19:22 | 27.44196 | 33.26576 | 16683 ft | 431 kts | 119° |
| 2026-04-30 19:23 | 27.39678 | 33.35709 | 15118 ft | 420 kts | 118° |
| 2026-04-30 19:24 | 27.37676 | 33.42077 | 14106 ft | 410 kts | 98° |
| 2026-04-30 19:24 | 27.37267 | 33.45331 | 13623 ft | 406 kts | 96° |
| 2026-04-30 19:24 | 27.36550 | 33.51865 | 12632 ft | 397 kts | 96° |
| 2026-04-30 19:25 | 27.33909 | 33.60772 | 11045 ft | 388 kts | 138° |
| 2026-04-30 19:26 | 27.28833 | 33.62893 | 10466 ft | 361 kts | 173° |
| 2026-04-30 19:26 | 27.23818 | 33.63894 | 10174 ft | 335 kts | 168° |
| 2026-04-30 19:26 | 27.21483 | 33.64519 | 10023 ft | 323 kts | 167° |
| 2026-04-30 19:27 | 27.16994 | 33.65831 | 9383 ft | 314 kts | 166° |
| 2026-04-30 19:27 | 27.12594 | 33.67141 | 8577 ft | 311 kts | 166° |
| 2026-04-30 19:28 | 27.10410 | 33.67790 | 8169 ft | 310 kts | 166° |
| 2026-04-30 19:28 | 27.06069 | 33.69074 | 7411 ft | 298 kts | 166° |
| 2026-04-30 19:29 | 27.01982 | 33.70284 | 6727 ft | 290 kts | 166° |
| 2026-04-30 19:29 | 26.99958 | 33.70882 | 6384 ft | 288 kts | 166° |
| 2026-04-30 19:30 | 26.94161 | 33.72721 | 6088 ft | 265 kts | 150° |
| 2026-04-30 19:30 | 26.92685 | 33.76140 | 5916 ft | 230 kts | 73° |
| 2026-04-30 19:31 | 26.94899 | 33.78509 | 4987 ft | 215 kts | 25° |
| 2026-04-30 19:31 | 26.96229 | 33.79409 | 4563 ft | 212 kts | 28° |
| 2026-04-30 19:31 | 26.98634 | 33.81391 | 3780 ft | 205 kts | 33° |
| 2026-04-30 19:32 | 26.99744 | 33.82407 | 3403 ft | 202 kts | 33° |
| 2026-04-30 19:32 | 27.00833 | 33.83431 | 3041 ft | 197 kts | 33° |
| 2026-04-30 19:32 | 27.01956 | 33.84369 | 2726 ft | 183 kts | 18° |
| 2026-04-30 19:32 | 27.03148 | 33.84497 | 2530 ft | 162 kts | 346° |
| 2026-04-30 19:33 | 27.04196 | 33.84180 | 2358 ft | 152 kts | 342° |
| 2026-04-30 19:33 | 27.05191 | 33.83874 | 2173 ft | 144 kts | 342° |
| 2026-04-30 19:33 | 27.06140 | 33.83585 | 1983 ft | 136 kts | 343° |
| 2026-04-30 19:33 | 27.07014 | 33.83325 | 1814 ft | 123 kts | 342° |
| 2026-04-30 19:34 | 27.07840 | 33.83075 | 1647 ft | 121 kts | 342° |
| 2026-04-30 19:34 | 27.08700 | 33.82818 | 1462 ft | 123 kts | 342° |
| 2026-04-30 19:34 | 27.10407 | 33.82306 | 1143 ft | 126 kts | 342° |
| 2026-04-30 19:35 | 27.11258 | 33.82016 | 1089 ft | 128 kts | 342° |
| 2026-04-30 19:35 | 27.12176 | 33.81769 | 862 ft | 131 kts | 346° |
| 2026-04-30 19:35 | 27.13059 | 33.81517 | 634 ft | 127 kts | 343° |
| 2026-04-30 19:35 | 27.13943 | 33.81255 | 438 ft | 130 kts | 343° |
| 2026-04-30 19:36 | 27.14869 | 33.80983 | 358 ft | 132 kts | 343° |
| 2026-04-30 19:36 | 27.15815 | 33.80701 | 174 ft | 135 kts | 343° |
| 2026-04-30 19:36 | 27.17480 | 33.80206 | 61 ft | 89 kts | 346° |
| 2026-04-30 19:37 | 27.18007 | 33.80050 | 61 ft | 62 kts | 343° |
| 2026-04-30 19:37 | 27.18355 | 33.79949 | 60 ft | 23 kts | 346° |
| 2026-04-30 19:37 | 27.18450 | 33.79959 | 60 ft | 11 kts | 58° |
| 2026-04-30 19:37 | 27.18471 | 33.80054 | 60 ft | 11 kts | 86° |
| 2026-04-30 19:38 | 27.18412 | 33.80109 | 60 ft | 12 kts | 166° |
| 2026-04-30 19:38 | 27.18313 | 33.80135 | 60 ft | 17 kts | 165° |
| 2026-04-30 19:38 | 27.18192 | 33.80176 | 60 ft | 14 kts | 145° |
| 2026-04-30 19:38 | 27.18189 | 33.80281 | 60 ft | 14 kts | 73° |
| 2026-04-30 19:39 | 27.18199 | 33.80396 | 60 ft | 12 kts | 117° |
| 2026-04-30 19:39 | 27.18122 | 33.80442 | 60 ft | 12 kts | 165° |
| 2026-04-30 19:39 | 27.18029 | 33.80470 | 60 ft | 13 kts | 165° |
| 2026-04-30 19:39 | 27.17936 | 33.80498 | 60 ft | 13 kts | 167° |
| 2026-04-30 19:40 | 27.17845 | 33.80523 | 60 ft | 10 kts | 160° |
| 2026-04-30 19:40 | 27.17837 | 33.80593 | 60 ft | 9 kts | 64° |
| 2026-04-30 19:40 | 27.17851 | 33.80642 | 60 ft | 4 kts | 75° |
| 2026-04-30 19:40 | 27.17852 | 33.80647 | 60 ft | 1 kts | 75° |
| 2026-04-30 19:41 | 27.17853 | 33.80649 | 60 ft | 0 kts | 75° |